Time;durP1;ratioP1;P1;durP2;ratioP2;P2;SDS_P1;SDS_P2;PMS_P1;PMS_P2;Temp;Humidity;BMP_temperature;BMP_pressure;BME280_temperature;BME280_humidity;BME280_pressure;Samples;Min_cycle;Max_cycle;Signal;HPM_P1;HPM_P2
2021/01/31 00:00:54;;;;;;;16.70;11.70;;;;;;;4.81;75.91;98693.02;1735898;82;21216;-52
2021/01/31 00:03:59;;;;;;;21.25;14.83;;;;;;;4.85;75.83;98694.87;1724342;82;21235;-52
2021/01/31 00:07:05;;;;;;;18.17;13.10;;;;;;;4.86;75.80;98687.05;1729827;81;21555;-52
2021/01/31 00:10:11;;;;;;;21.62;13.22;;;;;;;4.88;75.59;98685.02;1736591;82;21192;-51
2021/01/31 00:13:18;;;;;;;17.75;12.35;;;;;;;4.91;75.41;98684.66;1714493;82;21269;-52
2021/01/31 00:16:25;;;;;;;17.73;12.20;;;;;;;4.92;75.25;98682.26;1736725;81;21211;-51
2021/01/31 00:19:31;;;;;;;16.10;12.00;;;;;;;4.94;75.08;98678.86;1725372;81;21286;-51
2021/01/31 00:22:37;;;;;;;15.95;11.38;;;;;;;4.95;74.93;98685.98;1739021;81;21365;-52
2021/01/31 00:25:42;;;;;;;16.00;11.25;;;;;;;4.97;74.76;98678.50;1738785;82;21311;-52
2021/01/31 00:28:48;;;;;;;16.82;12.65;;;;;;;4.97;74.60;98665.80;1738899;82;21228;-52
2021/01/31 00:31:56;;;;;;;16.85;12.40;;;;;;;5.00;74.50;98660.50;1738447;81;21239;-52
2021/01/31 00:35:02;;;;;;;19.27;13.62;;;;;;;5.01;74.33;98685.26;1734216;82;21345;-54
2021/01/31 00:38:07;;;;;;;16.00;12.20;;;;;;;5.02;74.28;98691.00;1738136;82;21368;-52
2021/01/31 00:41:13;;;;;;;18.17;12.18;;;;;;;5.02;74.17;98687.78;1738424;81;21353;-52
2021/01/31 00:44:20;;;;;;;15.98;11.65;;;;;;;5.03;74.05;98684.03;1738790;82;21365;-52
2021/01/31 00:47:28;;;;;;;14.98;10.98;;;;;;;5.03;73.88;98675.05;1739007;81;21466;-52
2021/01/31 00:50:37;;;;;;;15.35;11.25;;;;;;;5.01;73.76;98672.52;1732826;82;21417;-51
2021/01/31 00:53:44;;;;;;;14.63;10.20;;;;;;;4.99;73.68;98669.67;1734717;82;21472;-51
2021/01/31 00:56:49;;;;;;;17.77;12.23;;;;;;;5.01;73.64;98671.70;1738828;81;21878;-51
2021/01/31 00:59:55;;;;;;;17.17;11.85;;;;;;;5.05;73.62;98671.65;1738658;82;21190;-52
2021/01/31 01:03:01;;;;;;;13.90;10.80;;;;;;;5.08;73.44;98661.29;1739277;81;21547;-50
2021/01/31 01:06:17;;;;;;;15.88;11.18;;;;;;;5.10;73.32;98659.75;1739010;81;21400;-51
2021/01/31 01:09:23;;;;;;;17.98;12.90;;;;;;;5.13;73.38;98656.16;1739181;82;21254;-52
2021/01/31 01:12:28;;;;;;;18.02;12.25;;;;;;;5.17;73.31;98654.75;1734462;81;21457;-51
2021/01/31 01:15:34;;;;;;;19.50;13.48;;;;;;;5.19;73.20;98657.28;1738732;82;21203;-52
2021/01/31 01:18:39;;;;;;;15.93;12.05;;;;;;;5.20;73.16;98653.02;1739157;82;21444;-52
2021/01/31 01:21:44;;;;;;;16.05;12.03;;;;;;;5.24;73.05;98644.02;1734850;81;21283;-52
2021/01/31 01:24:52;;;;;;;15.50;12.07;;;;;;;5.25;72.88;98639.77;1727696;83;21319;-52
2021/01/31 01:27:57;;;;;;;17.62;12.15;;;;;;;5.26;72.84;98634.69;1731330;81;21346;-51
2021/01/31 01:31:03;;;;;;;18.67;12.88;;;;;;;5.28;72.68;98634.50;1721262;81;21888;-52
2021/01/31 01:34:08;;;;;;;16.97;12.58;;;;;;;5.29;72.62;98625.32;1731549;83;21701;-52
2021/01/31 01:37:14;;;;;;;17.60;13.13;;;;;;;5.29;72.60;98629.39;1724903;81;21374;-51
2021/01/31 01:40:27;;;;;;;19.32;14.00;;;;;;;5.31;72.63;98631.41;1729734;83;21401;-51
2021/01/31 01:43:33;;;;;;;17.10;13.05;;;;;;;5.33;72.62;98626.62;1730076;83;21200;-50
2021/01/31 01:46:50;;;;;;;20.27;13.58;;;;;;;5.36;72.54;98628.99;1702235;83;21591;-52
2021/01/31 01:49:57;;;;;;;20.90;14.13;;;;;;;5.36;72.43;98627.63;1701843;84;21255;-51
2021/01/31 01:53:06;;;;;;;20.70;14.25;;;;;;;5.36;72.44;98638.48;1702027;83;21212;-51
2021/01/31 01:56:39;;;;;;;19.40;14.47;;;;;;;5.40;72.45;98639.78;1702343;83;21242;-52
2021/01/31 01:59:44;;;;;;;18.82;14.23;;;;;;;5.41;72.36;98638.75;1702345;84;21219;-52
2021/01/31 02:03:03;;;;;;;20.40;13.22;;;;;;;5.43;72.32;98628.56;1702191;83;21235;-51
2021/01/31 02:06:26;;;;;;;19.48;12.95;;;;;;;5.43;72.18;98620.42;1702275;83;21259;-51
2021/01/31 02:09:31;;;;;;;20.45;13.70;;;;;;;5.42;72.22;98614.67;1702238;84;21203;-51
2021/01/31 02:12:37;;;;;;;17.55;13.35;;;;;;;5.40;72.19;98624.36;1702224;83;21748;-50
2021/01/31 02:15:42;;;;;;;20.77;14.85;;;;;;;5.37;72.20;98627.95;1702387;84;21224;-51
2021/01/31 02:18:51;;;;;;;19.60;12.98;;;;;;;5.36;72.22;98623.03;1702282;84;21751;-51
2021/01/31 02:22:25;;;;;;;17.45;12.10;;;;;;;5.34;72.08;98622.91;1704499;82;21302;-51
2021/01/31 02:26:11;;;;;;;19.70;14.05;;;;;;;5.28;72.01;98638.56;1707840;84;21204;-50
2021/01/31 02:29:49;;;;;;;20.52;14.20;;;;;;;5.19;72.18;98647.28;1639773;87;21435;-51
2021/01/31 02:33:32;;;;;;;20.17;14.55;;;;;;;5.15;72.35;98635.64;1707714;83;21258;-50
2021/01/31 02:36:48;;;;;;;19.00;13.75;;;;;;;5.14;72.42;98629.36;1708018;83;21223;-52
2021/01/31 02:40:09;;;;;;;17.98;12.18;;;;;;;5.13;72.36;98628.19;1706786;84;21199;-52
2021/01/31 02:43:22;;;;;;;17.42;12.85;;;;;;;5.07;72.26;98631.64;1707975;84;21254;-52
2021/01/31 02:46:40;;;;;;;17.90;13.25;;;;;;;4.98;72.54;98630.05;1707947;83;21763;-53
2021/01/31 02:49:57;;;;;;;19.80;13.65;;;;;;;4.96;72.77;98635.66;1707766;84;21266;-51
2021/01/31 02:53:12;;;;;;;21.73;14.78;;;;;;;4.97;72.84;98631.05;1707760;83;22134;-52
2021/01/31 02:56:29;;;;;;;22.13;15.53;;;;;;;4.99;72.92;98625.80;1707828;83;21756;-52
2021/01/31 02:59:55;;;;;;;19.45;13.28;;;;;;;5.02;72.94;98631.34;1707886;84;21788;-53
2021/01/31 03:03:24;;;;;;;19.77;13.55;;;;;;;5.03;72.88;98635.23;1707836;83;21250;-52
2021/01/31 03:06:34;;;;;;;17.90;13.15;;;;;;;5.06;72.88;98648.95;1707802;83;21274;-50
2021/01/31 03:09:59;;;;;;;18.85;13.43;;;;;;;5.04;72.88;98674.89;1707875;84;21290;-51
2021/01/31 03:13:23;;;;;;;18.95;13.70;;;;;;;5.01;72.84;98692.03;1707965;83;21329;-51
2021/01/31 03:16:37;;;;;;;19.92;13.83;;;;;;;4.98;72.93;98698.64;1707937;83;21212;-51
2021/01/31 03:19:53;;;;;;;;;;;;;;;4.90;72.93;98689.75;1710448;84;21223;-50
2021/01/31 03:23:23;;;;;;;17.15;12.58;;;;;;;4.82;73.10;98696.05;1708722;83;20228;-52
2021/01/31 03:26:49;;;;;;;15.95;11.73;;;;;;;4.72;73.28;98701.39;1707829;83;21278;-51
2021/01/31 03:29:55;;;;;;;15.10;10.88;;;;;;;4.63;73.66;98697.06;1707940;84;21196;-52
2021/01/31 03:33:11;;;;;;;15.98;11.75;;;;;;;4.65;73.89;98704.52;1707877;83;21239;-50
2021/01/31 03:36:17;;;;;;;17.60;12.43;;;;;;;4.65;73.78;98708.58;1692452;83;21247;-51
2021/01/31 03:39:23;;;;;;;16.48;10.98;;;;;;;4.55;73.78;98705.56;1707989;84;21739;-51
2021/01/31 03:42:28;;;;;;;16.48;11.85;;;;;;;4.48;73.91;98692.42;1707927;83;21250;-50
2021/01/31 03:45:39;;;;;;;15.55;11.15;;;;;;;4.40;73.94;98684.34;1707893;84;21223;-52
2021/01/31 03:48:51;;;;;;;16.48;10.93;;;;;;;4.37;74.18;98677.07;1707805;84;21751;-52
2021/01/31 03:51:55;;;;;;;19.23;12.75;;;;;;;4.37;74.23;98677.92;1707839;83;21218;-51
2021/01/31 03:55:01;;;;;;;16.37;11.28;;;;;;;4.37;74.21;98707.72;1707883;84;21211;-53
2021/01/31 03:58:14;;;;;;;15.70;10.93;;;;;;;4.36;74.16;98714.67;1707964;83;21235;-51
2021/01/31 04:01:22;;;;;;;17.95;11.88;;;;;;;4.32;74.17;98732.28;1707893;83;21251;-52
2021/01/31 04:04:49;;;;;;;17.52;12.40;;;;;;;4.24;74.27;98708.80;1707855;84;21790;-53
2021/01/31 04:07:58;;;;;;;19.42;12.70;;;;;;;4.20;74.34;98692.55;1707899;83;21219;-53
2021/01/31 04:11:04;;;;;;;22.67;13.15;;;;;;;4.20;74.42;98725.05;1707791;83;21298;-53
2021/01/31 04:14:26;;;;;;;24.55;14.80;;;;;;;4.17;74.37;98736.77;1707895;84;21266;-52
2021/01/31 04:17:32;;;;;;;21.77;14.40;;;;;;;4.10;74.36;98714.95;1708200;83;21242;-52
2021/01/31 04:20:41;;;;;;;21.62;14.53;;;;;;;4.09;74.43;98712.43;1707974;84;21258;-52
2021/01/31 04:23:47;;;;;;;22.77;14.25;;;;;;;4.06;74.35;98689.77;1707597;82;21242;-51
2021/01/31 04:26:51;;;;;;;21.73;14.78;;;;;;;4.03;74.39;98689.59;1688827;84;21353;-50
2021/01/31 04:30:00;;;;;;;21.12;14.87;;;;;;;4.05;74.43;98700.25;1711927;84;21337;-53
2021/01/31 04:33:07;;;;;;;22.05;14.55;;;;;;;4.08;74.41;98717.48;1711929;82;21475;-53
2021/01/31 04:36:16;;;;;;;22.70;14.75;;;;;;;4.10;74.32;98719.02;1711992;82;21392;-52
2021/01/31 04:39:23;;;;;;;20.68;14.63;;;;;;;4.05;74.18;98758.45;1711865;84;21290;-52
2021/01/31 04:42:29;;;;;;;21.33;14.00;;;;;;;4.01;74.23;98768.77;1711985;82;21392;-52
2021/01/31 04:45:40;;;;;;;22.00;14.28;;;;;;;3.96;74.19;98791.48;1712013;84;21262;-53
2021/01/31 04:48:58;;;;;;;23.65;15.23;;;;;;;3.87;74.20;98789.80;1712020;84;21207;-53
2021/01/31 04:52:36;;;;;;;23.73;15.63;;;;;;;3.77;74.39;98786.95;1711977;82;21369;-52
2021/01/31 04:55:51;;;;;;;22.85;15.18;;;;;;;3.71;74.54;98780.34;1711957;84;21349;-52
2021/01/31 04:59:03;;;;;;;22.58;15.55;;;;;;;3.65;74.66;98796.42;1711947;84;21360;-52
2021/01/31 05:02:16;;;;;;;32.50;17.92;;;;;;;3.62;74.80;98798.97;1711817;82;21417;-52
2021/01/31 05:05:35;;;;;;;25.45;16.17;;;;;;;3.63;74.85;98802.53;1711856;84;21420;-51
2021/01/31 05:08:40;;;;;;;22.02;13.88;;;;;;;3.62;74.90;98803.03;1712035;84;21735;-52
2021/01/31 05:12:05;;;;;;;23.18;15.43;;;;;;;3.63;74.96;98804.70;1711992;82;21239;-52
2021/01/31 05:15:30;;;;;;;21.50;14.60;;;;;;;3.64;74.96;98803.71;1712013;84;21356;-53
2021/01/31 05:18:37;;;;;;;19.87;13.40;;;;;;;3.63;74.83;98812.82;1711950;84;21349;-52
2021/01/31 05:21:43;;;;;;;20.10;15.05;;;;;;;3.59;74.92;98820.95;1712000;82;21369;-52
2021/01/31 05:24:49;;;;;;;24.80;16.17;;;;;;;3.61;74.96;98828.90;1711488;81;21282;-52
2021/01/31 05:27:55;;;;;;;22.05;14.63;;;;;;;3.63;75.00;98838.52;1707939;83;21274;-54
2021/01/31 05:31:01;;;;;;;21.95;13.88;;;;;;;3.63;74.90;98848.52;1707797;83;21219;-51
2021/01/31 05:34:10;;;;;;;21.05;14.43;;;;;;;3.61;74.99;98849.19;1707792;84;21282;-53
2021/01/31 05:37:17;;;;;;;21.60;14.18;;;;;;;3.60;74.98;98858.33;1707932;83;21290;-52
2021/01/31 05:40:50;;;;;;;19.32;12.80;;;;;;;3.54;74.88;98866.59;1707841;84;21791;-52
2021/01/31 05:44:05;;;;;;;18.50;12.73;;;;;;;3.44;75.02;98882.66;1708031;84;21294;-52
2021/01/31 05:47:28;;;;;;;18.40;14.10;;;;;;;3.37;75.14;98885.19;1707825;83;21302;-54
2021/01/31 05:50:47;;;;;;;19.32;13.32;;;;;;;3.25;75.14;98891.09;1707856;84;21207;-51
2021/01/31 05:53:53;;;;;;;18.00;12.43;;;;;;;3.13;75.28;98909.96;1707857;84;21286;-50
2021/01/31 05:56:58;;;;;;;23.65;16.15;;;;;;;3.07;75.38;98908.78;1707784;83;21223;-53
2021/01/31 06:00:06;;;;;;;26.52;16.85;;;;;;;3.00;75.23;98921.24;1708076;83;21203;-51
2021/01/31 06:03:17;;;;;;;35.80;22.13;;;;;;;2.91;74.74;98942.50;1707887;84;21247;-52
2021/01/31 06:06:32;;;;;;;44.67;25.65;;;;;;;2.80;74.18;98973.86;1707748;83;21239;-51
2021/01/31 06:09:43;;;;;;;49.25;28.92;;;;;;;2.58;73.47;98986.58;1707854;84;21299;-52
2021/01/31 06:12:56;;;;;;;45.23;27.02;;;;;;;2.32;73.30;99000.56;1707883;83;21803;-52
2021/01/31 06:16:07;;;;;;;48.78;30.37;;;;;;;2.12;73.04;99020.16;1707922;83;21211;-51
2021/01/31 06:19:33;;;;;;;44.42;28.23;;;;;;;1.89;72.83;99014.06;1707745;84;21218;-51
2021/01/31 06:22:54;;;;;;;47.55;29.67;;;;;;;1.70;72.02;99045.22;1694870;84;21767;-51
2021/01/31 06:26:00;;;;;;;42.62;27.00;;;;;;;1.48;71.35;99043.30;1707951;83;21250;-51
2021/01/31 06:29:15;;;;;;;50.90;29.40;;;;;;;1.32;71.10;99058.42;1677437;85;21309;-52
2021/01/31 06:32:36;;;;;;;64.97;38.30;;;;;;;1.17;70.94;99079.63;1657517;85;21705;-53
2021/01/31 06:35:41;;;;;;;51.68;30.90;;;;;;;1.04;70.98;99073.75;1677398;85;21255;-52
2021/01/31 06:38:53;;;;;;;47.25;27.32;;;;;;;0.98;71.11;99115.24;1677448;85;21206;-52
2021/01/31 06:42:07;;;;;;;49.00;28.30;;;;;;;0.90;70.76;99111.94;1672566;84;21261;-54
2021/01/31 06:45:29;;;;;;;46.08;27.80;;;;;;;0.83;70.75;99113.51;1677327;85;21296;-52
2021/01/31 06:49:01;;;;;;;47.83;28.52;;;;;;;0.76;70.54;99123.15;1677147;85;21261;-52
2021/01/31 06:52:42;;;;;;;57.40;32.45;;;;;;;0.75;70.87;99125.50;1677669;84;21329;-53
2021/01/31 06:56:02;;;;;;;43.17;25.40;;;;;;;0.81;70.79;99147.80;1677081;85;21256;-53
2021/01/31 06:59:46;;;;;;;38.95;24.40;;;;;;;0.86;70.19;99172.95;1644523;87;21250;-53
2021/01/31 07:03:40;;;;;;;43.50;25.80;;;;;;;0.81;69.42;99201.67;1616827;88;21275;-54
2021/01/31 07:07:08;;;;;;;42.17;24.50;;;;;;;0.74;69.20;99192.97;1644610;87;21288;-53
2021/01/31 07:10:42;;;;;;;41.10;26.17;;;;;;;0.73;68.83;99206.92;1644560;87;21793;-53
2021/01/31 07:14:15;;;;;;;39.03;22.60;;;;;;;0.70;68.44;99208.55;1644686;87;21249;-52
2021/01/31 07:17:41;;;;;;;33.40;21.73;;;;;;;0.63;67.87;99214.17;1644670;87;21280;-52
2021/01/31 07:20:53;;;;;;;31.75;21.30;;;;;;;0.67;67.85;99222.30;1644683;87;21305;-53
2021/01/31 07:23:58;;;;;;;33.73;22.07;;;;;;;0.74;67.58;99239.61;1644716;87;21395;-53
2021/01/31 07:27:08;;;;;;;33.40;22.02;;;;;;;0.80;67.65;99237.69;1645173;83;21358;-51
2021/01/31 07:30:21;;;;;;;38.80;21.93;;;;;;;0.80;67.78;99252.50;1707198;83;21234;-54
2021/01/31 07:33:46;;;;;;;34.30;21.93;;;;;;;0.82;68.06;99268.52;1706846;84;21755;-54
2021/01/31 07:37:14;;;;;;;28.15;18.25;;;;;;;0.87;67.87;99256.82;1706789;83;21215;-54
2021/01/31 07:40:23;;;;;;;29.10;18.90;;;;;;;0.87;67.42;99279.72;1636104;87;21218;-54
2021/01/31 07:43:28;;;;;;;24.52;16.65;;;;;;;0.77;66.97;99286.45;1707077;84;21446;-53
2021/01/31 07:46:34;;;;;;;21.35;14.40;;;;;;;0.75;67.46;99296.50;1706872;83;21207;-52
2021/01/31 07:50:07;;;;;;;19.75;14.30;;;;;;;0.77;67.23;99299.91;1706888;84;21220;-52
2021/01/31 07:53:14;;;;;;;21.60;13.68;;;;;;;0.71;66.56;99300.48;1706987;84;21361;-53
2021/01/31 07:56:36;;;;;;;18.70;13.60;;;;;;;0.69;66.94;99305.15;1633734;85;21353;-54
2021/01/31 07:59:43;;;;;;;15.83;11.88;;;;;;;0.83;67.16;99318.20;1648908;87;21246;-54
2021/01/31 08:02:53;;;;;;;16.75;11.40;;;;;;;0.99;66.47;99337.34;1613386;86;21791;-55
2021/01/31 08:06:15;;;;;;;14.85;10.58;;;;;;;1.00;66.01;99370.02;1706800;83;21234;-53
2021/01/31 08:09:40;;;;;;;15.60;10.05;;;;;;;0.95;64.68;99339.95;1706957;84;21227;-52
2021/01/31 08:13:03;;;;;;;14.00;9.90;;;;;;;0.93;64.85;99341.96;1652982;85;21260;-54
2021/01/31 08:16:29;;;;;;;;;;;;;;;1.04;64.78;99380.89;1624413;85;21780;-54
2021/01/31 08:19:39;;;;;;;12.63;9.35;;;;;;;1.04;64.17;99384.93;1660694;86;20548;-54
2021/01/31 08:22:44;;;;;;;13.53;9.48;;;;;;;1.00;63.87;99388.88;1706826;83;21733;-53
2021/01/31 08:26:12;;;;;;;16.37;9.70;;;;;;;0.99;63.88;99395.27;1706453;83;21211;-53
2021/01/31 08:29:31;;;;;;;13.30;9.45;;;;;;;1.05;64.08;99414.91;1709214;81;21373;-54
2021/01/31 08:32:35;;;;;;;11.90;9.00;;;;;;;1.14;63.86;99410.02;1712685;83;21440;-54
2021/01/31 08:35:56;;;;;;;14.75;9.20;;;;;;;1.19;63.43;99423.10;1712713;84;21369;-53
2021/01/31 08:39:04;;;;;;;13.70;10.10;;;;;;;1.17;63.30;99445.29;1728775;82;21376;-54
2021/01/31 08:42:15;;;;;;;16.77;11.43;;;;;;;1.14;63.61;99435.63;1741869;81;21223;-54
2021/01/31 08:45:22;;;;;;;11.75;8.80;;;;;;;1.27;63.87;99469.91;1709390;83;21806;-55
2021/01/31 08:48:33;;;;;;;15.10;10.13;;;;;;;1.44;63.55;99461.64;1712020;84;21206;-53
2021/01/31 08:51:46;;;;;;;12.00;8.20;;;;;;;1.50;62.93;99471.36;1712349;83;21274;-54
2021/01/31 08:55:11;;;;;;;12.53;8.50;;;;;;;1.48;62.50;99485.95;1712510;84;21701;-53
2021/01/31 08:58:17;;;;;;;12.63;8.90;;;;;;;1.43;62.38;99499.87;1715181;82;21369;-54
2021/01/31 09:01:23;;;;;;;12.68;8.55;;;;;;;1.36;62.31;99506.80;1719921;81;21223;-54
2021/01/31 09:04:29;;;;;;;13.88;9.80;;;;;;;1.36;62.36;99504.09;1659766;86;21237;-54
2021/01/31 09:07:44;;;;;;;14.60;9.48;;;;;;;1.36;62.38;99513.53;1731409;81;21888;-54
2021/01/31 09:10:50;;;;;;;16.40;10.60;;;;;;;1.44;62.79;99531.22;1733871;81;21192;-53
2021/01/31 09:13:55;;;;;;;19.60;11.38;;;;;;;1.51;62.35;99529.68;1732575;83;21744;-55
2021/01/31 09:17:31;;;;;;;17.10;10.58;;;;;;;1.55;62.38;99545.09;1732394;83;21228;-54
2021/01/31 09:20:38;;;;;;;18.62;10.28;;;;;;;1.52;62.11;99543.51;1734982;82;21234;-55
2021/01/31 09:23:44;;;;;;;17.27;11.88;;;;;;;1.39;62.20;99555.08;1741093;81;21346;-55
2021/01/31 09:27:01;;;;;;;15.25;10.50;;;;;;;1.35;62.89;99565.76;1736412;82;21256;-55
2021/01/31 09:30:10;;;;;;;15.30;10.40;;;;;;;1.41;63.02;99571.11;1736400;81;21781;-55
2021/01/31 09:33:20;;;;;;;21.17;12.28;;;;;;;1.40;63.32;99568.90;1659066;85;21273;-55
2021/01/31 09:36:29;;;;;;;17.20;11.25;;;;;;;1.37;63.42;99578.61;1735566;81;21773;-54
2021/01/31 09:39:34;;;;;;;13.85;10.03;;;;;;;1.27;63.30;99585.81;1735743;82;21330;-55
2021/01/31 09:42:47;;;;;;;13.50;9.93;;;;;;;1.19;63.74;99588.33;1735616;81;21365;-54
2021/01/31 09:45:56;;;;;;;17.00;10.60;;;;;;;1.12;63.99;99616.83;1735720;81;21322;-55
2021/01/31 09:49:20;;;;;;;16.23;9.65;;;;;;;1.05;63.78;99611.61;1735913;82;21772;-55
2021/01/31 09:52:26;;;;;;;15.40;11.25;;;;;;;1.01;64.19;99620.97;1734930;81;21373;-55
2021/01/31 09:55:51;;;;;;;20.35;13.68;;;;;;;0.96;64.18;99633.98;1735811;82;21370;-55
2021/01/31 09:58:56;;;;;;;13.68;9.95;;;;;;;0.92;64.57;99638.42;1735709;82;21434;-54
2021/01/31 10:02:22;;;;;;;13.68;8.68;;;;;;;0.97;64.70;99642.89;1735386;81;21339;-54
2021/01/31 10:05:31;;;;;;;12.37;8.78;;;;;;;0.98;63.81;99655.39;1718662;83;21415;-55
2021/01/31 10:08:36;;;;;;;12.53;9.90;;;;;;;0.97;63.53;99664.45;1730187;83;21245;-54
2021/01/31 10:11:52;;;;;;;14.20;10.18;;;;;;;0.99;63.27;99674.13;1721267;81;21197;-54
2021/01/31 10:15:03;;;;;;;14.30;10.55;;;;;;;1.00;63.36;99670.43;1657505;86;21230;-56
2021/01/31 10:18:09;;;;;;;19.05;9.78;;;;;;;1.06;63.41;99675.80;1688888;85;21283;-55
2021/01/31 10:21:37;;;;;;;19.48;14.00;;;;;;;1.10;63.53;99674.05;1689033;85;21852;-54
2021/01/31 10:24:43;;;;;;;19.80;13.75;;;;;;;1.22;63.78;99676.17;1657583;86;21293;-55
2021/01/31 10:27:54;;;;;;;18.98;12.93;;;;;;;1.37;63.47;99688.28;1688691;85;21247;-54
2021/01/31 10:30:59;;;;;;;19.37;12.28;;;;;;;1.43;63.03;99692.65;1658621;82;21273;-54
2021/01/31 10:34:06;;;;;;;25.65;15.03;;;;;;;1.44;62.58;99703.78;1662830;86;21237;-55
2021/01/31 10:37:25;;;;;;;18.77;12.80;;;;;;;1.44;62.41;99713.22;1694197;84;21394;-55
2021/01/31 10:40:31;;;;;;;14.00;9.55;;;;;;;1.40;62.02;99733.36;1676100;85;21277;-54
2021/01/31 10:43:39;;;;;;;15.83;9.95;;;;;;;1.35;61.88;99737.44;1725976;83;21288;-54
2021/01/31 10:46:46;;;;;;;17.00;10.65;;;;;;;1.29;62.18;99738.84;1743401;80;21241;-55
2021/01/31 10:49:54;;;;;;;11.83;8.83;;;;;;;1.32;62.29;99749.34;1736238;82;21850;-54
2021/01/31 10:53:00;;;;;;;14.05;9.80;;;;;;;1.32;62.14;99750.70;1738814;80;21622;-55
2021/01/31 10:56:07;;;;;;;17.07;10.85;;;;;;;1.30;62.18;99763.45;1711000;82;21405;-55
2021/01/31 10:59:12;;;;;;;15.35;9.98;;;;;;;1.28;62.42;99765.44;1710961;84;21308;-54
2021/01/31 11:02:17;;;;;;;26.60;14.60;;;;;;;1.26;62.53;99770.11;1711705;82;21373;-56
2021/01/31 11:05:24;;;;;;;23.20;12.70;;;;;;;1.30;62.85;99769.36;1711820;84;21380;-55
2021/01/31 11:08:30;;;;;;;25.02;14.95;;;;;;;1.31;62.57;99773.27;1711795;84;21227;-57
2021/01/31 11:11:36;;;;;;;13.78;9.30;;;;;;;1.32;62.41;99787.09;1711704;82;21227;-56
2021/01/31 11:14:42;;;;;;;21.10;12.85;;;;;;;1.29;61.98;99781.97;1711397;84;21239;-56
2021/01/31 11:17:47;;;;;;;19.32;12.23;;;;;;;1.27;61.94;99780.37;1711804;82;21256;-56
2021/01/31 11:20:55;;;;;;;18.35;11.38;;;;;;;1.28;62.12;99779.41;1711808;82;21878;-55
2021/01/31 11:24:00;;;;;;;18.45;12.25;;;;;;;1.33;62.54;99787.44;1711501;84;21207;-56
2021/01/31 11:27:06;;;;;;;20.60;13.80;;;;;;;1.41;62.60;99798.94;1711520;82;21981;-55
2021/01/31 11:30:12;;;;;;;18.98;11.45;;;;;;;1.38;62.58;99790.59;1711610;84;21369;-54
2021/01/31 11:33:18;;;;;;;17.55;11.18;;;;;;;1.38;61.98;99794.64;1710569;82;21346;-55
2021/01/31 11:36:26;;;;;;;13.90;8.58;;;;;;;1.38;61.61;99801.87;1711565;82;21350;-56
2021/01/31 11:39:31;;;;;;;13.10;9.30;;;;;;;1.42;60.74;99811.42;1712011;84;21731;-55
2021/01/31 11:42:37;;;;;;;16.77;9.50;;;;;;;1.45;60.42;99817.41;1715880;80;21248;-54
2021/01/31 11:45:43;;;;;;;17.12;9.98;;;;;;;1.51;60.27;99825.45;1738978;82;21192;-57
2021/01/31 11:48:50;;;;;;;14.07;8.95;;;;;;;1.59;60.18;99823.45;1740886;82;21381;-55
2021/01/31 11:51:56;;;;;;;15.00;8.88;;;;;;;1.70;59.98;99839.56;1741344;81;21211;-55
2021/01/31 11:55:01;;;;;;;14.93;9.38;;;;;;;1.74;59.06;99841.86;1741529;82;21345;-55
2021/01/31 11:58:08;;;;;;;16.40;9.30;;;;;;;1.70;59.17;99845.79;1741466;81;21330;-56
2021/01/31 12:01:14;;;;;;;18.70;10.93;;;;;;;1.76;59.51;99847.12;1741319;81;21199;-56
2021/01/31 12:04:18;;;;;;;19.20;12.70;;;;;;;1.82;59.67;99843.88;1711575;84;21350;-56
2021/01/31 12:07:25;;;;;;;19.57;11.88;;;;;;;1.86;59.69;99846.66;1711513;82;21396;-55
2021/01/31 12:10:32;;;;;;;16.52;10.05;;;;;;;1.89;59.86;99851.30;1711274;84;21727;-56
2021/01/31 12:13:38;;;;;;;13.72;9.45;;;;;;;1.91;59.59;99870.05;1718925;82;21477;-54
2021/01/31 12:16:43;;;;;;;14.33;9.60;;;;;;;1.86;59.15;99865.05;1705759;84;21257;-56
2021/01/31 12:19:50;;;;;;;14.23;9.30;;;;;;;1.86;59.10;99869.59;1706533;84;21842;-56
2021/01/31 12:22:57;;;;;;;13.85;9.18;;;;;;;1.80;59.16;99860.69;1706113;84;21242;-56
2021/01/31 12:26:05;;;;;;;13.32;8.95;;;;;;;1.83;59.09;99876.60;1705314;84;21328;-55
2021/01/31 12:29:11;;;;;;;14.47;9.68;;;;;;;1.82;59.29;99878.95;1705600;84;21220;-57
2021/01/31 12:32:18;;;;;;;17.95;11.30;;;;;;;1.89;59.67;99880.14;1705872;84;21746;-55
2021/01/31 12:35:26;;;;;;;13.95;9.20;;;;;;;1.98;59.54;99884.25;1739411;80;21211;-56
2021/01/31 12:38:33;;;;;;;18.15;11.93;;;;;;;2.04;58.93;99882.35;1737098;82;21225;-56
2021/01/31 12:41:38;;;;;;;18.00;10.20;;;;;;;2.06;58.68;99891.66;1711015;82;21242;-56
2021/01/31 12:44:46;;;;;;;18.42;11.35;;;;;;;2.09;58.13;99901.70;1740557;82;21229;-55
2021/01/31 12:47:52;;;;;;;17.57;10.72;;;;;;;2.02;57.76;99900.52;1739428;81;21719;-55
2021/01/31 12:50:58;;;;;;;18.95;11.57;;;;;;;1.97;58.12;99905.94;1716540;82;21168;-55
2021/01/31 12:54:08;;;;;;;18.45;11.28;;;;;;;1.98;57.93;99912.58;1739999;82;21187;-55
2021/01/31 12:57:15;;;;;;;21.07;12.30;;;;;;;1.98;57.71;99933.31;1740222;82;21255;-58
2021/01/31 13:00:23;;;;;;;15.05;9.63;;;;;;;1.92;57.34;99938.73;1740474;82;21203;-55
2021/01/31 13:03:32;;;;;;;20.23;11.22;;;;;;;1.78;57.31;99930.97;1739154;80;21201;-56
2021/01/31 13:06:38;;;;;;;17.65;10.25;;;;;;;1.64;57.65;99938.52;1735410;82;21455;-56
2021/01/31 13:09:44;;;;;;;18.75;10.55;;;;;;;1.58;58.14;99935.00;1735599;82;21429;-56
2021/01/31 13:12:53;;;;;;;15.13;10.38;;;;;;;1.57;58.23;99928.74;1735460;82;21212;-56
2021/01/31 13:15:58;;;;;;;15.45;10.48;;;;;;;1.61;58.25;99940.13;1735457;82;21367;-57
2021/01/31 13:19:04;;;;;;;15.13;9.65;;;;;;;1.65;58.29;99948.34;1735368;82;21228;-56
2021/01/31 13:22:10;;;;;;;18.27;9.90;;;;;;;1.69;58.38;99952.00;1735553;82;21411;-56
2021/01/31 13:25:16;;;;;;;16.00;11.00;;;;;;;1.74;58.29;99951.60;1735565;82;21348;-58
2021/01/31 13:28:22;;;;;;;14.63;10.35;;;;;;;1.79;58.06;99964.21;1735552;82;21942;-56
2021/01/31 13:31:27;;;;;;;17.87;11.40;;;;;;;1.82;58.15;99974.25;1735355;82;21233;-56
2021/01/31 13:34:33;;;;;;;17.40;11.68;;;;;;;1.90;58.39;99969.55;1734617;82;22168;-56
2021/01/31 13:37:38;;;;;;;23.45;14.60;;;;;;;1.95;58.05;99970.02;1730568;83;21371;-55
2021/01/31 13:40:43;;;;;;;20.25;12.68;;;;;;;1.92;58.00;99977.02;1730587;83;21427;-57
2021/01/31 13:43:49;;;;;;;20.88;12.40;;;;;;;1.92;58.12;99987.30;1730114;83;21705;-58
2021/01/31 13:46:57;;;;;;;18.15;11.33;;;;;;;1.88;58.08;99991.27;1730996;82;21263;-57
2021/01/31 13:50:04;;;;;;;18.35;11.15;;;;;;;1.86;58.28;100008.06;1735591;82;21874;-56
2021/01/31 13:53:11;;;;;;;21.50;13.88;;;;;;;1.82;58.36;100010.68;1735408;82;21394;-57
2021/01/31 13:56:20;;;;;;;26.45;14.20;;;;;;;1.81;58.59;100019.73;1735807;82;21357;-57
2021/01/31 13:59:26;;;;;;;22.50;13.55;;;;;;;1.85;58.76;100036.53;1720424;82;21334;-57
2021/01/31 14:02:32;;;;;;;26.05;14.85;;;;;;;1.81;58.84;100041.33;1734870;82;21390;-55
2021/01/31 14:05:37;;;;;;;24.82;15.72;;;;;;;1.80;58.98;100042.80;1735117;82;21239;-56
2021/01/31 14:08:43;;;;;;;26.90;15.88;;;;;;;1.83;59.20;100057.39;1735045;82;21240;-56
2021/01/31 14:11:48;;;;;;;20.97;14.53;;;;;;;1.87;59.26;100061.56;1735365;82;21271;-56
2021/01/31 14:14:54;;;;;;;28.12;16.42;;;;;;;1.89;59.33;100073.09;1735700;82;21429;-57
2021/01/31 14:17:59;;;;;;;25.85;15.88;;;;;;;1.94;59.56;100077.58;1736077;82;21420;-56
2021/01/31 14:21:05;;;;;;;28.07;15.70;;;;;;;2.01;59.78;100081.00;1736137;82;21421;-58
2021/01/31 14:24:12;;;;;;;24.80;14.83;;;;;;;2.05;59.64;100101.34;1729056;82;21433;-56
2021/01/31 14:27:18;;;;;;;18.32;12.20;;;;;;;2.03;59.72;100102.47;1733892;81;21454;-57
2021/01/31 14:30:24;;;;;;;27.70;19.02;;;;;;;2.04;59.70;100105.03;1729849;83;21360;-56
2021/01/31 14:33:32;;;;;;;36.17;22.77;;;;;;;2.05;59.63;100107.22;1729604;83;21582;-56
2021/01/31 14:36:38;;;;;;;36.68;28.27;;;;;;;2.02;59.71;100100.25;1731362;82;21272;-56
2021/01/31 14:39:44;;;;;;;45.63;25.72;;;;;;;2.07;59.95;100105.26;1733225;83;21205;-56
2021/01/31 14:42:54;;;;;;;52.20;26.37;;;;;;;2.16;59.97;100109.39;1733818;83;21217;-57
2021/01/31 14:46:00;;;;;;;33.08;19.67;;;;;;;2.20;59.64;100105.46;1734396;82;21282;-55
2021/01/31 14:49:07;;;;;;;25.95;16.12;;;;;;;2.23;59.65;100107.03;1727688;82;21829;-56
2021/01/31 14:52:14;;;;;;;53.60;28.25;;;;;;;2.30;59.65;100105.53;1730089;82;21288;-56